Denver, Iowa
Current Conditions -  °F | °C
As of 10:54 AM on Thursday 27 Nov 2014 (Local Time) from KALO Reporting Station
Clear Clear  
Wind Chill: -11°   Ceiling: Unl
Heat Index:   Visibility: 10mi
Dew Point: -3°   Wind: 12mph
Humidity: 70%   Direction: 330°NNW
Pressure: 30.49"   Gusts: NA
Location:  42.67°N, 92.34°W
Report Text: KALO 271654Z 33010KT 10SM CLR M15/M19 A3049 RMK AO2 SLP344 T11501194
Loading
Personal Weather Stations






























Interactive Weather Map New forecast layout! Learn more

10-Day Weather Forecast

Advertisements
Track Severe Weather on mobile